createdAt,value
2022-10-22T00:02:07.306Z,17.38
2022-10-22T00:04:37.647Z,16.40
2022-10-22T00:07:07.301Z,15.95
2022-10-22T00:09:34.450Z,16.83
2022-10-22T00:12:04.756Z,16.42
2022-10-22T00:17:06.949Z,15.73
2022-10-22T00:19:43.364Z,15.57
2022-10-22T00:22:13.771Z,17.08
2022-10-22T00:24:41.093Z,15.80
2022-10-22T00:27:12.239Z,16.30
2022-10-22T00:29:41.908Z,16.35
2022-10-22T00:32:11.751Z,16.83
2022-10-22T00:34:39.153Z,15.40
2022-10-22T00:37:08.746Z,16.42
2022-10-22T00:39:38.166Z,15.60
2022-10-22T00:42:15.045Z,15.05
2022-10-22T00:45:27.667Z,15.75
2022-10-22T00:48:08.917Z,16.10
2022-10-22T00:50:45.693Z,17.63
2022-10-22T00:53:24.322Z,16.10
2022-10-22T00:55:57.050Z,17.42
2022-10-22T00:58:27.941Z,17.40
2022-10-22T01:01:00.340Z,16.90
2022-10-22T01:03:30.397Z,15.82
2022-10-22T01:06:03.655Z,15.82
2022-10-22T01:09:02.487Z,16.35
2022-10-22T01:12:11.177Z,17.85
2022-10-22T01:15:10.217Z,15.45
2022-10-22T01:17:50.567Z,16.88
2022-10-22T01:20:23.414Z,15.77
2022-10-22T01:23:42.659Z,16.10
2022-10-22T01:26:35.193Z,15.90
2022-10-22T01:29:22.162Z,16.73
2022-10-22T01:31:56.796Z,15.65
2022-10-22T01:34:28.850Z,15.60
2022-10-22T01:36:57.665Z,14.90
2022-10-22T01:39:29.566Z,17.25
2022-10-22T01:41:57.330Z,16.45
2022-10-22T01:44:30.737Z,16.63
2022-10-22T01:47:07.792Z,16.25
2022-10-22T01:49:55.946Z,16.95
2022-10-22T01:52:52.162Z,15.23
2022-10-22T01:55:45.724Z,15.82
2022-10-22T01:58:41.965Z,16.20
2022-10-22T02:01:42.902Z,16.25
2022-10-22T02:04:20.334Z,16.23
2022-10-22T02:06:51.925Z,16.02
2022-10-22T02:09:25.426Z,16.33
2022-10-22T02:11:57.121Z,17.90
2022-10-22T02:14:28.018Z,17.08
2022-10-22T02:17:01.098Z,18.33
2022-10-22T02:19:38.342Z,15.75
2022-10-22T02:22:05.890Z,17.17
2022-10-22T02:24:33.394Z,17.80
2022-10-22T02:27:16.781Z,16.02
2022-10-22T02:32:51.935Z,17.60
2022-10-22T02:35:25.907Z,16.17
2022-10-22T02:37:54.836Z,16.50
2022-10-22T02:40:25.546Z,17.80
2022-10-22T02:42:55.003Z,16.20
2022-10-22T02:45:22.781Z,16.27
2022-10-22T02:47:52.592Z,16.70
2022-10-22T02:50:24.695Z,16.92
2022-10-22T02:52:54.446Z,17.88
2022-10-22T02:55:22.422Z,16.05
2022-10-22T02:57:51.653Z,16.30
2022-10-22T03:00:23.783Z,17.30
2022-10-22T03:02:53.348Z,17.40
2022-10-22T03:05:25.246Z,17.48
2022-10-22T03:07:57.385Z,17.15
2022-10-22T03:10:29.126Z,18.15
2022-10-22T03:12:59.063Z,18.90
2022-10-22T03:18:00.983Z,16.48
2022-10-22T03:20:32.834Z,18.20
2022-10-22T03:23:01.167Z,18.33
2022-10-22T03:25:31.079Z,18.55
2022-10-22T03:28:07.657Z,19.02
2022-10-22T03:30:37.514Z,17.40
2022-10-22T03:33:11.588Z,18.38
2022-10-22T03:35:48.188Z,16.30
2022-10-22T03:38:19.812Z,18.20
2022-10-22T03:40:47.742Z,17.67
2022-10-22T03:43:15.030Z,18.92
2022-10-22T03:45:46.962Z,18.77
2022-10-22T03:48:16.538Z,16.50
2022-10-22T03:50:46.293Z,17.08
2022-10-22T03:53:15.546Z,16.02
2022-10-22T03:55:45.089Z,16.50
2022-10-22T03:58:14.710Z,14.18
2022-10-22T04:00:49.620Z,15.85
2022-10-22T04:03:19.142Z,15.65
2022-10-22T04:05:48.602Z,15.98
2022-10-22T04:08:17.965Z,15.52
2022-10-22T04:10:53.635Z,15.73
2022-10-22T04:13:23.095Z,14.93
2022-10-22T04:15:51.988Z,15.85
2022-10-22T04:18:22.433Z,15.52
2022-10-22T04:20:52.725Z,15.63
2022-10-22T04:23:20.095Z,14.60
2022-10-22T04:26:01.330Z,15.15
2022-10-22T04:28:28.881Z,14.43
2022-10-22T04:30:58.406Z,16.20
2022-10-22T04:33:27.779Z,14.43
2022-10-22T04:36:03.023Z,14.70
2022-10-22T04:38:32.514Z,15.20
2022-10-22T04:41:13.657Z,16.17
2022-10-22T04:43:41.049Z,15.45
2022-10-22T04:46:09.398Z,14.38
2022-10-22T04:48:37.343Z,14.73
2022-10-22T04:51:06.673Z,15.50
2022-10-22T04:53:35.641Z,15.85
2022-10-22T04:56:24.963Z,15.23
2022-10-22T04:58:55.083Z,14.95
2022-10-22T05:01:29.600Z,14.40
2022-10-22T05:04:01.315Z,15.80
2022-10-22T05:06:32.587Z,15.02
2022-10-22T05:09:07.477Z,14.70
2022-10-22T05:11:41.523Z,16.13
2022-10-22T05:14:13.942Z,16.02
2022-10-22T05:16:41.191Z,15.70
2022-10-22T05:19:23.979Z,14.52
2022-10-22T05:21:53.546Z,14.60
2022-10-22T05:24:21.002Z,14.18
2022-10-22T05:26:58.954Z,15.05
2022-10-22T05:29:27.186Z,13.70
2022-10-22T05:31:54.758Z,14.23
2022-10-22T05:34:24.033Z,15.57
2022-10-22T05:36:53.860Z,13.77
2022-10-22T05:39:23.398Z,15.05
2022-10-22T05:41:50.834Z,14.50
2022-10-22T05:44:20.277Z,14.38
2022-10-22T05:46:50.478Z,13.48
2022-10-22T05:49:22.061Z,14.27
2022-10-22T05:51:49.287Z,14.52
2022-10-22T05:54:20.820Z,15.13
2022-10-22T05:56:50.558Z,14.18
2022-10-22T05:59:22.501Z,14.63
2022-10-22T06:01:54.672Z,15.45
2022-10-22T06:04:23.843Z,15.63
2022-10-22T06:06:53.198Z,15.90
2022-10-22T06:09:22.232Z,15.45
2022-10-22T06:11:50.746Z,16.35
2022-10-22T06:14:21.015Z,14.75
2022-10-22T06:16:51.337Z,14.80
2022-10-22T06:19:26.789Z,14.10
2022-10-22T06:21:54.275Z,13.82
2022-10-22T06:24:24.200Z,15.68
2022-10-22T06:26:52.374Z,14.80
2022-10-22T06:29:22.439Z,13.90
2022-10-22T06:31:51.913Z,13.52
2022-10-22T06:34:21.978Z,12.95
2022-10-22T06:36:51.954Z,13.77
2022-10-22T06:39:19.406Z,12.73
2022-10-22T06:41:46.907Z,14.18
2022-10-22T06:44:19.203Z,12.93
2022-10-22T06:46:52.067Z,13.82
2022-10-22T06:49:27.084Z,14.45
2022-10-22T06:51:59.383Z,12.80
2022-10-22T06:54:26.660Z,14.00
2022-10-22T06:56:58.359Z,12.82
2022-10-22T06:59:28.400Z,13.98
2022-10-22T07:01:57.562Z,14.48
2022-10-22T07:04:24.848Z,14.77
2022-10-22T07:06:56.973Z,14.25
2022-10-22T07:09:31.319Z,14.75
2022-10-22T07:12:00.626Z,13.48
2022-10-22T07:14:30.158Z,14.93
2022-10-22T07:16:59.508Z,13.82
2022-10-22T07:19:34.127Z,13.80
2022-10-22T07:22:01.800Z,14.40
2022-10-22T07:24:31.314Z,14.48
2022-10-22T07:26:58.579Z,14.27
2022-10-22T07:29:28.385Z,14.95
2022-10-22T07:31:55.606Z,14.52
2022-10-22T07:34:25.363Z,13.55
2022-10-22T07:36:57.249Z,14.40
2022-10-22T07:39:29.049Z,14.23
2022-10-22T07:41:58.195Z,13.80
2022-10-22T07:44:28.013Z,14.90
2022-10-22T07:46:58.125Z,15.48
2022-10-22T07:49:25.468Z,14.90
2022-10-22T07:51:57.197Z,14.93
2022-10-22T07:54:30.650Z,16.05
2022-10-22T07:56:57.721Z,16.38
2022-10-22T07:59:32.020Z,16.20
2022-10-22T08:02:07.458Z,17.05
2022-10-22T08:04:37.306Z,17.33
2022-10-22T08:07:09.738Z,16.95
2022-10-22T08:09:39.420Z,16.83
2022-10-22T08:12:06.944Z,17.67
2022-10-22T08:14:36.826Z,17.77
2022-10-22T08:17:08.433Z,18.83
2022-10-22T08:22:03.806Z,18.27
2022-10-22T08:24:33.590Z,21.13
2022-10-22T08:27:00.810Z,17.13
2022-10-22T08:29:28.082Z,17.50
2022-10-22T08:31:57.763Z,17.67
2022-10-22T08:34:25.138Z,18.95
2022-10-22T08:36:54.579Z,18.67
2022-10-22T08:39:24.030Z,20.17
2022-10-22T08:42:13.315Z,19.48
2022-10-22T08:45:00.562Z,19.67
2022-10-22T08:47:46.909Z,18.02
2022-10-22T08:50:27.638Z,21.13
2022-10-22T08:53:04.750Z,20.20
2022-10-22T08:55:36.594Z,19.00
2022-10-22T08:58:25.860Z,18.15
2022-10-22T09:01:01.127Z,19.48
2022-10-22T09:03:48.697Z,17.25
2022-10-22T09:06:27.800Z,18.73
2022-10-22T09:09:00.266Z,18.65
2022-10-22T09:11:39.314Z,18.52
2022-10-22T09:14:16.745Z,18.27
2022-10-22T09:17:07.885Z,17.27
2022-10-22T09:19:43.931Z,16.50
2022-10-22T09:22:51.344Z,18.65
2022-10-22T09:25:27.464Z,19.17
2022-10-22T09:28:02.739Z,17.83
2022-10-22T09:30:34.266Z,18.35
2022-10-22T09:33:07.558Z,16.60
2022-10-22T09:35:53.030Z,19.30
2022-10-22T09:38:27.282Z,17.52
2022-10-22T09:41:03.969Z,17.63
2022-10-22T09:43:36.377Z,19.65
2022-10-22T09:48:41.173Z,19.15
2022-10-22T09:51:35.777Z,19.80
2022-10-22T09:54:18.891Z,19.83
2022-10-22T09:57:05.120Z,19.45
2022-10-22T09:59:38.898Z,20.48
2022-10-22T10:02:19.628Z,20.60
2022-10-22T10:04:52.965Z,21.65
2022-10-22T10:07:30.207Z,22.02
2022-10-22T10:10:02.304Z,21.65
2022-10-22T10:13:05.211Z,21.90
2022-10-22T10:15:44.001Z,21.70
2022-10-22T10:18:55.911Z,22.90
2022-10-22T10:21:45.717Z,26.35
2022-10-22T10:24:47.906Z,23.67
2022-10-22T10:27:24.728Z,23.38
2022-10-22T10:30:05.983Z,23.95
2022-10-22T10:32:55.000Z,23.23
2022-10-22T10:35:35.855Z,26.80
2022-10-22T10:38:28.786Z,27.23
2022-10-22T10:41:21.509Z,25.25
2022-10-22T10:44:01.942Z,25.23
2022-10-22T10:46:49.424Z,24.02
2022-10-22T10:49:25.472Z,25.95
2022-10-22T10:52:17.486Z,26.08
2022-10-22T10:55:06.268Z,28.10
2022-10-22T10:58:03.126Z,28.27
2022-10-22T11:00:42.515Z,29.25
2022-10-22T11:03:45.854Z,28.00
2022-10-22T11:06:19.388Z,26.33
2022-10-22T11:09:07.049Z,27.75
2022-10-22T11:11:59.960Z,28.38
2022-10-22T11:14:41.585Z,27.77
2022-10-22T11:17:14.324Z,27.90
2022-10-22T11:19:55.629Z,29.50
2022-10-22T11:22:38.308Z,27.67
2022-10-22T11:25:15.742Z,27.13
2022-10-22T11:27:51.084Z,28.10
2022-10-22T11:30:26.273Z,26.38
2022-10-22T11:32:57.504Z,26.80
2022-10-22T11:35:37.842Z,23.35
2022-10-22T11:38:12.319Z,22.85
2022-10-22T11:40:55.168Z,23.48
2022-10-22T11:43:33.107Z,23.00
2022-10-22T11:46:26.385Z,22.23
2022-10-22T11:49:41.802Z,23.13
2022-10-22T11:52:26.668Z,22.88
2022-10-22T11:55:02.404Z,21.98
2022-10-22T11:57:39.582Z,22.73
2022-10-22T12:00:42.730Z,21.48
2022-10-22T12:03:32.804Z,21.25
2022-10-22T12:06:16.557Z,21.15
2022-10-22T12:08:51.257Z,21.05
2022-10-22T12:11:22.859Z,20.95
2022-10-22T12:13:58.611Z,21.83
2022-10-22T12:16:56.160Z,23.02
2022-10-22T12:19:31.857Z,22.45
2022-10-22T12:22:24.090Z,23.25
2022-10-22T12:24:53.986Z,22.45
2022-10-22T12:27:24.429Z,20.45
2022-10-22T12:29:56.827Z,22.40
2022-10-22T12:32:32.987Z,19.73
2022-10-22T12:35:15.658Z,20.63
2022-10-22T12:37:47.978Z,20.17
2022-10-22T12:40:44.570Z,20.98
2022-10-22T12:43:18.135Z,19.77
2022-10-22T12:48:35.088Z,20.85
2022-10-22T12:51:08.055Z,22.05
2022-10-22T12:53:43.515Z,22.33
2022-10-22T12:56:15.955Z,20.33
2022-10-22T12:59:15.875Z,22.65
2022-10-22T13:01:45.853Z,23.77
2022-10-22T13:05:24.038Z,22.55
2022-10-22T13:08:03.354Z,21.13
2022-10-22T13:10:39.609Z,23.88
2022-10-22T13:13:43.269Z,23.92
2022-10-22T13:16:19.162Z,22.50
2022-10-22T13:18:47.971Z,23.10
2022-10-22T13:21:26.337Z,21.40
2022-10-22T13:24:01.324Z,23.02
2022-10-22T13:26:39.054Z,25.13
2022-10-22T13:29:14.381Z,21.77
2022-10-22T13:31:48.002Z,26.13
2022-10-22T13:34:18.633Z,21.80
2022-10-22T13:36:46.209Z,22.05
2022-10-22T13:39:26.809Z,22.13
2022-10-22T13:41:58.793Z,20.98
2022-10-22T13:44:31.389Z,22.33
2022-10-22T13:46:58.881Z,22.13
2022-10-22T13:49:25.940Z,22.10
2022-10-22T13:51:55.351Z,23.02
2022-10-22T13:54:24.618Z,22.15
2022-10-22T13:56:53.608Z,29.23
2022-10-22T13:59:27.534Z,21.25
2022-10-22T14:01:56.996Z,22.50
2022-10-22T14:04:24.086Z,21.52
2022-10-22T14:06:51.659Z,23.95
2022-10-22T14:09:21.833Z,23.88
2022-10-22T14:14:19.217Z,27.02
2022-10-22T14:16:49.112Z,26.98
2022-10-22T14:19:20.556Z,26.65
2022-10-22T14:24:24.502Z,25.10
2022-10-22T14:26:54.824Z,26.52
2022-10-22T14:29:24.269Z,26.75
2022-10-22T14:31:58.989Z,24.83
2022-10-22T14:36:58.091Z,25.15
2022-10-22T14:39:27.320Z,26.05
2022-10-22T14:41:57.157Z,25.67
2022-10-22T14:44:24.340Z,24.70
2022-10-22T14:46:56.253Z,26.55
2022-10-22T14:49:25.771Z,27.15
2022-10-22T14:51:55.309Z,25.33
2022-10-22T14:54:22.358Z,59.63
2022-10-22T14:56:52.060Z,36.25
2022-10-22T14:59:19.294Z,41.20
2022-10-22T15:01:48.845Z,53.33
2022-10-22T15:04:15.969Z,29.65
2022-10-22T15:06:43.513Z,30.25
2022-10-22T15:09:18.167Z,29.58
2022-10-22T15:11:47.815Z,30.92
2022-10-22T15:14:16.962Z,30.17
2022-10-22T15:16:46.444Z,30.42
2022-10-22T15:19:13.839Z,31.38
2022-10-22T15:21:43.431Z,30.33
2022-10-22T15:24:10.533Z,30.08
2022-10-22T15:26:42.972Z,31.80
2022-10-22T15:29:12.418Z,31.00
2022-10-22T15:31:46.180Z,29.75
2022-10-22T15:34:21.477Z,28.98
2022-10-22T15:36:53.709Z,29.52
2022-10-22T15:39:20.823Z,29.33
2022-10-22T15:41:51.456Z,31.88
2022-10-22T15:44:26.385Z,29.42
2022-10-22T15:47:00.680Z,27.42
2022-10-22T15:49:28.829Z,29.08
2022-10-22T15:51:56.378Z,28.02
2022-10-22T15:54:28.055Z,29.02
2022-10-22T15:56:56.634Z,29.63
2022-10-22T15:59:26.280Z,28.60
2022-10-22T16:01:53.582Z,29.92
2022-10-22T16:04:22.979Z,29.08
2022-10-22T16:06:57.867Z,30.05
2022-10-22T16:09:27.255Z,29.83
2022-10-22T16:12:01.581Z,31.80
2022-10-22T16:14:29.059Z,31.52
2022-10-22T16:16:56.384Z,38.85
2022-10-22T16:19:24.374Z,35.40
2022-10-22T16:21:56.803Z,32.55
2022-10-22T16:24:23.948Z,33.63
2022-10-22T16:26:53.881Z,30.98
2022-10-22T16:29:23.219Z,34.35
2022-10-22T16:31:50.446Z,33.55
2022-10-22T16:34:17.548Z,33.78
2022-10-22T16:36:48.850Z,33.22
2022-10-22T16:39:23.713Z,31.92
2022-10-22T16:41:53.363Z,32.60
2022-10-22T16:44:23.683Z,32.15
2022-10-22T16:46:53.250Z,31.88
2022-10-22T16:49:24.833Z,31.48
2022-10-22T16:51:54.689Z,30.33
2022-10-22T16:54:26.228Z,26.50
2022-10-22T16:56:55.722Z,27.00
2022-10-22T16:59:22.782Z,26.60
2022-10-22T17:01:52.587Z,23.48
2022-10-22T17:04:23.565Z,21.05
2022-10-22T17:06:50.858Z,20.50
2022-10-22T17:09:24.165Z,20.83
2022-10-22T17:11:56.222Z,20.80
2022-10-22T17:14:23.322Z,22.83
2022-10-22T17:16:53.904Z,22.80
2022-10-22T17:19:27.081Z,23.60
2022-10-22T17:21:56.922Z,22.38
2022-10-22T17:24:26.433Z,23.33
2022-10-22T17:26:55.920Z,23.38
2022-10-22T17:29:28.472Z,23.67
2022-10-22T17:31:55.911Z,23.52
2022-10-22T17:34:25.370Z,25.20
2022-10-22T17:36:58.554Z,26.65
2022-10-22T17:39:32.743Z,27.90
2022-10-22T17:42:02.350Z,28.25
2022-10-22T17:44:32.077Z,27.75
2022-10-22T17:47:01.769Z,31.83
2022-10-22T17:49:36.377Z,31.67
2022-10-22T17:52:11.252Z,32.03
2022-10-22T17:54:43.264Z,33.45
2022-10-22T17:57:14.884Z,33.38
2022-10-22T17:59:41.950Z,33.95
2022-10-22T18:02:17.636Z,31.92
2022-10-22T18:04:51.828Z,36.25
2022-10-22T18:07:21.507Z,36.70
2022-10-22T18:09:51.109Z,35.13
2022-10-22T18:12:25.498Z,37.47
2022-10-22T18:14:54.771Z,38.10
2022-10-22T18:17:24.634Z,37.30
2022-10-22T18:19:54.013Z,38.33
2022-10-22T18:22:25.615Z,35.85
2022-10-22T18:24:57.210Z,38.67
2022-10-22T18:27:24.989Z,38.42
2022-10-22T18:29:52.229Z,37.00
2022-10-22T18:32:21.715Z,36.50
2022-10-22T18:34:51.315Z,39.05
2022-10-22T18:37:18.743Z,36.85
2022-10-22T18:39:50.439Z,36.92
2022-10-22T18:42:17.965Z,34.92
2022-10-22T18:44:45.118Z,38.08
2022-10-22T18:47:12.387Z,37.78
2022-10-22T18:49:42.319Z,39.00
2022-10-22T18:52:14.827Z,37.55
2022-10-22T18:57:13.947Z,38.63
2022-10-22T18:59:43.405Z,37.05
2022-10-22T19:02:16.126Z,37.15
2022-10-22T19:04:44.414Z,39.17
2022-10-22T19:07:12.505Z,37.58
2022-10-22T19:09:43.238Z,37.92
2022-10-22T19:12:15.071Z,35.53
2022-10-22T19:14:44.674Z,34.57
2022-10-22T19:17:12.504Z,32.90
2022-10-22T19:19:44.547Z,33.17
2022-10-22T19:22:20.846Z,33.92
2022-10-22T19:24:53.079Z,33.70
2022-10-22T19:27:25.021Z,34.20
2022-10-22T19:29:54.175Z,34.90
2022-10-22T19:32:30.148Z,34.10
2022-10-22T19:34:58.066Z,33.92
2022-10-22T19:37:27.957Z,32.60
2022-10-22T19:39:57.155Z,35.53
2022-10-22T19:42:26.865Z,34.15
2022-10-22T19:44:59.455Z,35.33
2022-10-22T19:47:28.089Z,36.30
2022-10-22T19:49:55.471Z,34.05
2022-10-22T19:52:25.304Z,32.40
2022-10-22T19:54:52.554Z,31.42
2022-10-22T19:57:20.236Z,33.08
2022-10-22T19:59:49.606Z,33.30
2022-10-22T20:02:22.515Z,33.55
2022-10-22T20:04:50.111Z,33.35
2022-10-22T20:07:17.555Z,34.05
2022-10-22T20:09:46.877Z,34.78
2022-10-22T20:12:19.072Z,32.22
2022-10-22T20:14:51.600Z,32.30
2022-10-22T20:17:18.938Z,31.77
2022-10-22T20:19:50.625Z,32.38
2022-10-22T20:22:20.392Z,34.25
2022-10-22T20:24:48.140Z,35.85
2022-10-22T20:27:17.735Z,34.75
2022-10-22T20:29:44.852Z,35.70
2022-10-22T20:32:15.088Z,33.83
2022-10-22T20:34:46.881Z,35.38
2022-10-22T20:37:21.785Z,35.53
2022-10-22T20:42:21.433Z,37.17
2022-10-22T20:44:50.838Z,33.63
2022-10-22T20:47:18.100Z,34.28
2022-10-22T20:49:45.209Z,34.40
2022-10-22T20:52:12.486Z,31.95
2022-10-22T20:54:44.118Z,35.10
2022-10-22T20:57:16.836Z,34.83
2022-10-22T20:59:48.587Z,32.40
2022-10-22T21:02:16.018Z,33.60
2022-10-22T21:04:45.587Z,32.70
2022-10-22T21:07:16.109Z,32.45
2022-10-22T21:09:45.768Z,32.13
2022-10-22T21:12:15.268Z,31.58
2022-10-22T21:14:44.819Z,31.55
2022-10-22T21:17:12.267Z,31.48
2022-10-22T21:19:41.766Z,33.97
2022-10-22T21:22:11.317Z,31.42
2022-10-22T21:24:43.383Z,33.88
2022-10-22T21:27:15.217Z,33.08
2022-10-22T21:29:44.681Z,32.85
2022-10-22T21:32:14.071Z,31.63
2022-10-22T21:34:41.096Z,33.30
2022-10-22T21:37:08.469Z,33.05
2022-10-22T21:39:41.247Z,33.40
2022-10-22T21:42:14.426Z,32.67
2022-10-22T21:44:41.430Z,33.75
2022-10-22T21:47:08.677Z,34.22
2022-10-22T21:49:40.370Z,36.35
2022-10-22T21:52:12.591Z,35.83
2022-10-22T21:57:14.127Z,35.55
2022-10-22T21:59:43.450Z,35.70
2022-10-22T22:02:10.746Z,37.83
2022-10-22T22:04:38.044Z,39.97
2022-10-22T22:07:07.867Z,36.15
2022-10-22T22:09:37.421Z,38.85
2022-10-22T22:12:04.762Z,38.58
2022-10-22T22:14:32.718Z,36.67
2022-10-22T22:17:00.035Z,38.05
2022-10-22T22:19:31.618Z,36.47
2022-10-22T22:21:58.998Z,37.03
2022-10-22T22:24:30.825Z,38.95
2022-10-22T22:27:00.769Z,40.95
2022-10-22T22:29:27.883Z,37.95
2022-10-22T22:31:57.513Z,38.50
2022-10-22T22:34:29.954Z,38.38
2022-10-22T22:39:26.790Z,40.25
2022-10-22T22:41:57.089Z,39.50
2022-10-22T22:44:26.839Z,41.50
2022-10-22T22:46:58.584Z,40.95
2022-10-22T22:49:25.747Z,39.28
2022-10-22T22:51:53.417Z,41.28
2022-10-22T22:54:20.502Z,43.63
2022-10-22T22:56:49.989Z,42.75
2022-10-22T22:59:19.098Z,48.50
2022-10-22T23:01:49.131Z,46.58
2022-10-22T23:04:23.698Z,45.70
2022-10-22T23:06:51.736Z,48.17
2022-10-22T23:11:52.606Z,52.33
2022-10-22T23:14:22.190Z,50.33
2022-10-22T23:16:52.904Z,50.50
2022-10-22T23:19:22.065Z,50.22
2022-10-22T23:21:51.816Z,52.58
2022-10-22T23:24:22.106Z,51.50
2022-10-22T23:26:55.944Z,52.78
2022-10-22T23:29:30.646Z,53.95
2022-10-22T23:32:03.038Z,51.35
2022-10-22T23:34:34.806Z,52.60
2022-10-22T23:37:02.149Z,53.75
2022-10-22T23:39:29.667Z,53.90
2022-10-22T23:41:57.383Z,52.50
2022-10-22T23:44:25.355Z,52.30
2022-10-22T23:46:52.799Z,54.80
2022-10-22T23:49:22.294Z,56.35
2022-10-22T23:51:52.025Z,54.78
2022-10-22T23:54:19.384Z,56.00
2022-10-22T23:56:53.394Z,54.17
